Ely Airport Yelland Field
KELY : now visible

Airfield :











YOU CAN JOIN US ON...

 
LOGIN :

Register | Disclaimer

   EN    FR    IT 

 









Legend :    VFR   Marginal VFR   IFR   Intensive IFR   Very Intensive IFR
Visi :
Ceiling :
>= 8 km
>= 3000ft
5 to 8 km
1000 to 3000 ft
1500m to 5 km
500 to 1000 ft
800 to 1500m
200 to 500 ft
< 800m
< 200 ft
Symbols :   Thunderstorms  Fog  Heavy snow  Heavy precipitations  Wind > 20 kt






- Airport Elevation : 6259 ft


KELY - Ely Yelland Field

CURRENT METAR :
  • 250253Z AUTO 33009KT 10SM CLR 16/M08 A3008 RMK AO2 SLP115 T01611083 53008

EXPIRED METARs :
  • 250153Z AUTO 35009KT 10SM CLR 20/M08 A3006 RMK AO2 SLP111 T02001083
  • 250053Z AUTO 34012G22KT 10SM CLR 22/M08 A3005 RMK AO2 PK WND 35026/0011 SLP119 T02171083

TAF KELY
Valid from the 25 at 00:00 until the 26 at 00:00 UTC


242320Z 2500/2524 33009G18KT P6SM FEW250
FM250700 17008KT P6SM FEW250
FM251800 35004KT P6SM SKC
KZLC FIR / North America



MET'MAP, your aeronautical weather chart ! - Copyright ORBIFLY December 2007 - Disclaimer

ORBIFLY MET'MAP TEAM :

Programming & Development : Alexandra Zaïnal
Original concept : Baudouin d'Aumeries
Technical & hardware support : Manuel Goepfert
Assistance : Marc-Olivier Méhu

Contact : metmap@orbifly.com




SOURCES & CREDITS :

   NOAA       Earth
Advisory